Time;durP1;ratioP1;P1;durP2;ratioP2;P2;SDS_P1;SDS_P2;PMS_P1;PMS_P2;Temp;Humidity;BMP_temperature;BMP_pressure;BME280_temperature;BME280_humidity;BME280_pressure;Samples;Min_cycle;Max_cycle;Signal;HPM_P1;HPM_P2
2023/01/22 00:01:13;;;;;;;9.00;2.90;;;;;;;;;;5030186;28;21004;-63
2023/01/22 00:03:40;;;;;;;5.93;3.33;;;;;;;;;;5031309;28;21247;-63
2023/01/22 00:06:07;;;;;;;5.70;2.93;;;;;;;;;;5029388;28;20446;-63
2023/01/22 00:08:33;;;;;;;6.73;3.10;;;;;;;;;;5046156;28;20942;-64
2023/01/22 00:11:00;;;;;;;5.83;3.07;;;;;;;;;;5030463;28;20453;-63
2023/01/22 00:13:27;;;;;;;3.53;2.80;;;;;;;;;;5030384;28;20473;-64
2023/01/22 00:15:55;;;;;;;5.07;2.97;;;;;;;;;;5031390;28;20438;-63
2023/01/22 00:18:22;;;;;;;5.07;3.07;;;;;;;;;;5029236;28;20441;-63
2023/01/22 00:20:49;;;;;;;5.63;2.90;;;;;;;;;;5031344;28;20429;-63
2023/01/22 00:23:15;;;;;;;4.00;2.90;;;;;;;;;;5031399;28;20860;-63
2023/01/22 00:25:42;;;;;;;4.87;3.20;;;;;;;;;;5031328;28;20430;-63
2023/01/22 00:28:09;;;;;;;6.13;2.90;;;;;;;;;;5031265;28;20430;-63
2023/01/22 00:30:35;;;;;;;4.80;2.97;;;;;;;;;;5013347;28;20921;-64
2023/01/22 00:33:02;;;;;;;5.27;3.17;;;;;;;;;;5030648;28;20437;-64
2023/01/22 00:35:29;;;;;;;6.70;3.10;;;;;;;;;;5031331;28;20473;-63
2023/01/22 00:37:57;;;;;;;3.70;2.67;;;;;;;;;;5012960;28;20455;-63
2023/01/22 00:40:24;;;;;;;5.03;2.93;;;;;;;;;;5030143;28;20925;-63
2023/01/22 00:42:51;;;;;;;5.80;3.00;;;;;;;;;;5030990;28;20503;-63
2023/01/22 00:45:18;;;;;;;5.40;3.10;;;;;;;;;;5029348;28;20975;-63
2023/01/22 00:47:45;;;;;;;4.37;3.20;;;;;;;;;;5029825;28;20533;-63
2023/01/22 00:50:12;;;;;;;5.73;3.30;;;;;;;;;;5029663;28;20509;-63
2023/01/22 00:52:39;;;;;;;5.53;3.07;;;;;;;;;;5030078;28;20476;-63
2023/01/22 00:55:06;;;;;;;7.43;3.27;;;;;;;;;;5011110;28;20485;-62
2023/01/22 00:57:50;;;;;;;5.90;3.53;;;;;;;;;;5029418;28;20466;-62
2023/01/22 01:00:18;;;;;;;5.37;2.70;;;;;;;;;;5028538;28;20442;-62
2023/01/22 01:05:48;;;;;;;4.00;3.23;;;;;;;;;;5016560;28;20942;-61
2023/01/22 01:08:16;;;;;;;5.30;3.10;;;;;;;;;;5012514;28;20485;-62
2023/01/22 01:10:43;;;;;;;6.13;2.93;;;;;;;;;;5029848;28;20446;-62
2023/01/22 01:13:10;;;;;;;5.10;3.17;;;;;;;;;;5028507;28;20442;-62
2023/01/22 01:15:37;;;;;;;4.63;3.13;;;;;;;;;;5029665;28;20931;-62
2023/01/22 01:18:04;;;;;;;3.90;2.80;;;;;;;;;;5029264;28;20953;-62
2023/01/22 01:20:31;;;;;;;5.07;3.20;;;;;;;;;;5030078;28;20807;-62
2023/01/22 01:22:57;;;;;;;4.57;3.23;;;;;;;;;;5028282;28;20461;-63
2023/01/22 01:25:24;;;;;;;5.13;2.90;;;;;;;;;;5029414;28;20449;-62
2023/01/22 01:27:50;;;;;;;4.70;3.00;;;;;;;;;;5010061;28;20438;-62
2023/01/22 01:30:35;;;;;;;7.57;3.50;;;;;;;;;;5029208;28;20444;-62
2023/01/22 01:33:01;;;;;;;4.57;3.17;;;;;;;;;;5029726;28;20477;-62
2023/01/22 01:35:29;;;;;;;6.03;3.57;;;;;;;;;;5012670;28;20457;-65
2023/01/22 01:37:56;;;;;;;5.13;2.80;;;;;;;;;;5030005;28;20569;-65
2023/01/22 01:40:22;;;;;;;6.83;3.87;;;;;;;;;;5028650;28;20467;-65
2023/01/22 01:42:49;;;;;;;7.00;3.77;;;;;;;;;;5029689;28;20436;-66
2023/01/22 02:17:30;;;;;;;6.97;3.70;;;;;;;;;;5029197;28;20407;-62
2023/01/22 02:19:58;;;;;;;6.93;4.17;;;;;;;;;;5029596;28;20488;-62
2023/01/22 02:22:29;;;;;;;5.57;3.87;;;;;;;;;;5011611;28;20470;-63
2023/01/22 02:24:56;;;;;;;5.70;3.67;;;;;;;;;;5028442;28;20512;-62
2023/01/22 02:27:43;;;;;;;4.60;3.70;;;;;;;;;;5010165;28;20461;-62
2023/01/22 02:30:10;;;;;;;6.90;4.03;;;;;;;;;;5011780;28;20779;-62
2023/01/22 02:32:36;;;;;;;6.73;3.83;;;;;;;;;;5029173;28;20457;-62
2023/01/22 02:35:03;;;;;;;8.23;4.00;;;;;;;;;;5027716;28;20478;-62
2023/01/22 02:37:30;;;;;;;7.07;4.10;;;;;;;;;;5010478;28;20457;-63
2023/01/22 02:40:14;;;;;;;7.97;4.10;;;;;;;;;;5044854;28;20525;-62
2023/01/22 02:42:42;;;;;;;7.33;3.87;;;;;;;;;;5009628;28;20489;-63
2023/01/22 02:45:26;;;;;;;5.80;3.77;;;;;;;;;;5027793;28;20972;-63
2023/01/22 02:47:53;;;;;;;6.43;4.23;;;;;;;;;;5027958;28;20803;-63
2023/01/22 02:50:20;;;;;;;6.47;3.90;;;;;;;;;;5028390;28;20462;-63
2023/01/22 02:52:47;;;;;;;6.27;3.73;;;;;;;;;;5028321;28;20553;-63
2023/01/22 02:55:13;;;;;;;5.17;3.47;;;;;;;;;;4993915;28;20485;-63
2023/01/22 02:57:57;;;;;;;8.10;3.70;;;;;;;;;;5042853;28;20524;-63
2023/01/22 03:00:24;;;;;;;7.43;4.13;;;;;;;;;;5030820;28;20426;-63
2023/01/22 03:02:51;;;;;;;6.17;3.70;;;;;;;;;;5014987;28;20946;-63
2023/01/22 03:05:18;;;;;;;6.57;3.93;;;;;;;;;;5015257;28;20438;-63
2023/01/22 03:07:44;;;;;;;5.40;3.57;;;;;;;;;;5014899;28;20442;-63
2023/01/22 03:10:28;;;;;;;5.57;3.87;;;;;;;;;;5032670;28;20414;-63
2023/01/22 03:21:50;;;;;;;6.00;4.00;;;;;;;;;;5031725;28;20480;-63
2023/01/22 03:24:16;;;;;;;5.03;3.60;;;;;;;;;;5031904;28;20481;-63
2023/01/22 03:27:00;;;;;;;6.30;3.90;;;;;;;;;;5043906;28;20441;-64
2023/01/22 03:29:29;;;;;;;6.17;3.80;;;;;;;;;;5015061;28;21183;-63
2023/01/22 03:31:57;;;;;;;5.27;3.57;;;;;;;;;;5030720;28;20945;-63
2023/01/22 03:34:24;;;;;;;6.07;3.70;;;;;;;;;;5014157;28;20488;-63
2023/01/22 03:36:53;;;;;;;5.97;3.93;;;;;;;;;;5031435;28;20448;-63
2023/01/22 03:39:40;;;;;;;6.53;3.73;;;;;;;;;;5014446;28;20774;-63
2023/01/22 03:42:10;;;;;;;5.30;3.87;;;;;;;;;;5030815;28;21007;-63
2023/01/22 03:44:36;;;;;;;5.47;4.20;;;;;;;;;;5011226;28;21238;-63
2023/01/22 03:47:03;;;;;;;6.83;3.77;;;;;;;;;;5011304;28;20461;-63
2023/01/22 03:49:30;;;;;;;7.20;4.40;;;;;;;;;;5012634;28;20450;-63
2023/01/22 03:51:56;;;;;;;5.90;4.00;;;;;;;;;;5014078;28;20436;-63
2023/01/22 03:54:24;;;;;;;9.63;5.00;;;;;;;;;;5013281;28;20454;-63
2023/01/22 03:56:54;;;;;;;6.10;4.00;;;;;;;;;;5013443;28;20533;-62
2023/01/22 03:59:30;;;;;;;5.80;4.50;;;;;;;;;;5014330;28;20541;-63
2023/01/22 04:01:57;;;;;;;4.37;3.60;;;;;;;;;;5013367;28;20964;-63
2023/01/22 04:04:23;;;;;;;7.07;4.50;;;;;;;;;;5013801;28;20481;-63
2023/01/22 04:06:50;;;;;;;7.70;4.40;;;;;;;;;;5013945;28;21014;-63
2023/01/22 04:09:17;;;;;;;5.60;4.47;;;;;;;;;;5031613;28;20418;-63
2023/01/22 04:11:47;;;;;;;7.37;4.73;;;;;;;;;;5013043;28;20442;-63
2023/01/22 04:14:16;;;;;;;19.87;7.60;;;;;;;;;;5006412;28;20477;-63
2023/01/22 04:17:02;;;;;;;6.30;4.37;;;;;;;;;;5011590;28;20451;-64
2023/01/22 04:19:39;;;;;;;10.73;5.57;;;;;;;;;;5031184;28;20456;-63
2023/01/22 04:22:25;;;;;;;7.73;4.60;;;;;;;;;;5020192;28;20453;-63
2023/01/22 04:25:11;;;;;;;7.57;4.90;;;;;;;;;;5013617;28;20544;-63
2023/01/22 04:27:38;;;;;;;7.27;5.57;;;;;;;;;;5029537;28;20443;-63
2023/01/22 04:30:22;;;;;;;6.63;4.60;;;;;;;;;;5030840;28;20803;-63
2023/01/22 04:32:58;;;;;;;8.23;5.07;;;;;;;;;;5009037;28;20456;-63
2023/01/22 04:35:42;;;;;;;11.23;6.10;;;;;;;;;;5011182;28;20441;-64
2023/01/22 04:38:13;;;;;;;8.93;5.40;;;;;;;;;;5023745;28;20457;-63
2023/01/22 04:40:40;;;;;;;7.73;5.00;;;;;;;;;;5011447;28;20544;-64
2023/01/22 04:43:07;;;;;;;6.00;4.80;;;;;;;;;;5011430;28;21059;-64
2023/01/22 04:45:35;;;;;;;9.60;5.70;;;;;;;;;;5013065;28;20882;-64
2023/01/22 04:48:02;;;;;;;11.17;5.53;;;;;;;;;;5012342;28;20458;-63
2023/01/22 04:50:30;;;;;;;14.20;6.67;;;;;;;;;;5011175;28;20454;-64
2023/01/22 04:52:56;;;;;;;12.40;7.20;;;;;;;;;;5012458;28;20825;-63
2023/01/22 04:55:41;;;;;;;8.83;5.40;;;;;;;;;;5012318;28;20433;-64
2023/01/22 04:58:10;;;;;;;8.03;5.50;;;;;;;;;;5012274;28;20956;-63
2023/01/22 05:00:39;;;;;;;8.40;5.77;;;;;;;;;;5009914;28;20487;-63
2023/01/22 05:03:07;;;;;;;10.20;6.30;;;;;;;;;;5010737;28;20461;-64
2023/01/22 05:05:35;;;;;;;8.13;5.33;;;;;;;;;;5012387;28;20454;-64
2023/01/22 05:08:19;;;;;;;7.47;4.80;;;;;;;;;;5045359;28;20461;-63
2023/01/22 05:10:46;;;;;;;8.00;5.30;;;;;;;;;;5012645;28;20438;-64
2023/01/22 05:13:40;;;;;;;7.93;5.63;;;;;;;;;;5011633;28;20437;-64
2023/01/22 05:16:07;;;;;;;7.57;5.70;;;;;;;;;;5029283;28;20500;-64
2023/01/22 05:18:34;;;;;;;8.63;5.23;;;;;;;;;;5011583;28;20481;-64
2023/01/22 05:21:01;;;;;;;7.67;5.17;;;;;;;;;;5011805;28;20469;-63
2023/01/22 05:23:29;;;;;;;7.90;5.30;;;;;;;;;;5010383;28;20457;-63
2023/01/22 05:25:56;;;;;;;8.03;5.10;;;;;;;;;;5012488;28;20442;-64
2023/01/22 05:28:43;;;;;;;7.20;4.90;;;;;;;;;;5018506;28;20459;-64
2023/01/22 05:31:41;;;;;;;7.30;5.37;;;;;;;;;;4997390;28;20464;-64
2023/01/22 05:34:28;;;;;;;7.30;5.00;;;;;;;;;;5014797;28;20479;-63
2023/01/22 05:36:55;;;;;;;7.43;5.57;;;;;;;;;;5028078;28;20450;-63
2023/01/22 05:39:24;;;;;;;6.17;4.93;;;;;;;;;;5011169;28;20488;-64
2023/01/22 05:41:53;;;;;;;8.57;5.87;;;;;;;;;;5010772;28;20477;-63
2023/01/22 05:44:37;;;;;;;6.73;5.20;;;;;;;;;;5011496;28;20937;-63
2023/01/22 05:47:04;;;;;;;7.07;5.13;;;;;;;;;;5011351;28;20455;-64
2023/01/22 05:50:09;;;;;;;9.93;6.00;;;;;;;;;;5021512;28;20446;-64
2023/01/22 05:52:36;;;;;;;9.07;5.37;;;;;;;;;;5027862;28;20540;-63
2023/01/22 05:55:04;;;;;;;7.30;5.23;;;;;;;;;;5010217;28;20453;-64
2023/01/22 05:57:38;;;;;;;7.53;5.67;;;;;;;;;;5044103;28;20457;-64
2023/01/22 06:00:05;;;;;;;8.27;5.40;;;;;;;;;;5028112;28;20446;-64
2023/01/22 06:02:41;;;;;;;8.97;5.70;;;;;;;;;;5013056;28;21126;-63
2023/01/22 06:05:10;;;;;;;8.00;5.33;;;;;;;;;;5011605;28;20509;-63
2023/01/22 06:07:38;;;;;;;8.23;5.83;;;;;;;;;;5011022;28;20453;-64
2023/01/22 06:10:05;;;;;;;9.43;6.33;;;;;;;;;;5028797;28;20463;-63
2023/01/22 06:12:39;;;;;;;7.97;6.00;;;;;;;;;;5010128;28;20461;-63
2023/01/22 06:15:06;;;;;;;9.43;5.40;;;;;;;;;;5029315;28;20434;-63
2023/01/22 06:17:33;;;;;;;8.50;6.30;;;;;;;;;;4995527;28;20455;-63
2023/01/22 06:20:00;;;;;;;8.57;6.37;;;;;;;;;;5003832;28;20478;-65
2023/01/22 06:22:27;;;;;;;9.30;6.27;;;;;;;;;;5008168;28;20450;-64
2023/01/22 06:24:58;;;;;;;9.93;5.67;;;;;;;;;;5011394;28;20517;-63
2023/01/22 06:27:40;;;;;;;8.77;5.60;;;;;;;;;;5008035;28;20460;-63
2023/01/22 06:30:07;;;;;;;8.03;5.70;;;;;;;;;;5023638;28;20459;-64
2023/01/22 06:32:34;;;;;;;12.20;7.10;;;;;;;;;;5003334;28;20482;-63
2023/01/22 06:35:00;;;;;;;9.27;6.87;;;;;;;;;;5007422;28;20481;-64
2023/01/22 06:37:28;;;;;;;11.70;6.67;;;;;;;;;;5014076;28;20977;-64
2023/01/22 06:39:55;;;;;;;16.33;7.53;;;;;;;;;;5028008;28;20458;-64
2023/01/22 06:42:28;;;;;;;96.07;25.03;;;;;;;;;;5011836;28;20853;-64
2023/01/22 06:45:14;;;;;;;20.80;8.47;;;;;;;;;;5012721;28;20842;-64
2023/01/22 06:47:45;;;;;;;74.47;24.60;;;;;;;;;;5026555;28;20450;-63
2023/01/22 06:50:13;;;;;;;16.50;8.47;;;;;;;;;;4996824;28;20961;-63
2023/01/22 06:52:39;;;;;;;24.67;12.27;;;;;;;;;;5016171;28;20463;-63
2023/01/22 06:55:07;;;;;;;8.70;5.73;;;;;;;;;;5012048;28;20477;-63
2023/01/22 06:57:36;;;;;;;8.50;6.37;;;;;;;;;;5029774;28;20473;-64
2023/01/22 07:00:04;;;;;;;8.33;6.07;;;;;;;;;;5010768;28;21304;-65
2023/01/22 07:02:30;;;;;;;13.23;7.27;;;;;;;;;;5023395;28;20539;-63
2023/01/22 07:04:57;;;;;;;8.70;6.60;;;;;;;;;;5028803;28;20486;-64
2023/01/22 07:07:24;;;;;;;9.60;6.50;;;;;;;;;;5018152;28;20457;-64
2023/01/22 07:09:50;;;;;;;11.13;7.07;;;;;;;;;;5027589;28;20813;-64
2023/01/22 07:12:17;;;;;;;9.80;6.30;;;;;;;;;;5029022;28;20945;-63
2023/01/22 07:14:44;;;;;;;10.63;6.07;;;;;;;;;;5028552;28;20449;-64
2023/01/22 07:17:10;;;;;;;9.13;6.50;;;;;;;;;;5028414;28;20456;-63
2023/01/22 07:19:37;;;;;;;10.10;6.77;;;;;;;;;;5008037;28;20978;-64
2023/01/22 07:22:04;;;;;;;8.97;6.80;;;;;;;;;;5028604;28;20499;-63
2023/01/22 07:24:30;;;;;;;9.87;6.37;;;;;;;;;;5027996;28;20489;-63
2023/01/22 07:26:57;;;;;;;9.00;6.03;;;;;;;;;;5027217;28;20449;-65
2023/01/22 07:29:24;;;;;;;8.07;6.23;;;;;;;;;;5043634;28;20438;-64
2023/01/22 07:31:51;;;;;;;11.03;7.03;;;;;;;;;;5027030;28;20446;-64
2023/01/22 07:34:36;;;;;;;9.50;6.90;;;;;;;;;;5015091;28;20827;-63
2023/01/22 07:37:02;;;;;;;8.20;6.00;;;;;;;;;;5005237;28;20487;-64
2023/01/22 07:39:29;;;;;;;11.20;6.50;;;;;;;;;;5007424;28;20447;-63
2023/01/22 07:41:59;;;;;;;13.30;7.70;;;;;;;;;;5008927;28;20439;-63
2023/01/22 07:44:29;;;;;;;14.13;7.77;;;;;;;;;;4991831;28;21260;-63
2023/01/22 07:46:55;;;;;;;9.60;6.20;;;;;;;;;;5007226;28;20455;-63
2023/01/22 07:49:22;;;;;;;10.03;6.30;;;;;;;;;;5006878;28;20513;-62
2023/01/22 07:51:49;;;;;;;8.63;5.70;;;;;;;;;;5008242;28;20503;-64
2023/01/22 07:54:16;;;;;;;10.00;6.70;;;;;;;;;;5008239;28;20447;-65
2023/01/22 07:56:44;;;;;;;9.80;6.60;;;;;;;;;;5006944;28;20446;-64
2023/01/22 07:59:10;;;;;;;9.23;6.33;;;;;;;;;;5006979;28;20549;-64
2023/01/22 08:01:37;;;;;;;8.80;5.87;;;;;;;;;;4991059;28;20443;-64
2023/01/22 08:04:04;;;;;;;11.07;6.47;;;;;;;;;;5008445;28;20449;-65
2023/01/22 08:06:31;;;;;;;10.77;6.73;;;;;;;;;;4990380;28;20535;-65
2023/01/22 08:09:23;;;;;;;11.33;6.53;;;;;;;;;;5004736;28;20439;-64
2023/01/22 08:11:50;;;;;;;9.60;6.33;;;;;;;;;;5012314;28;20442;-63
2023/01/22 08:14:17;;;;;;;10.70;6.13;;;;;;;;;;5010187;28;20435;-63
2023/01/22 08:16:44;;;;;;;13.67;7.90;;;;;;;;;;5010723;28;20454;-65
2023/01/22 08:19:11;;;;;;;15.73;7.77;;;;;;;;;;4990368;28;20478;-65
2023/01/22 08:21:38;;;;;;;33.40;13.30;;;;;;;;;;5009673;28;20443;-65
2023/01/22 08:24:05;;;;;;;11.97;7.40;;;;;;;;;;5009879;28;20447;-67
2023/01/22 08:26:31;;;;;;;17.03;8.27;;;;;;;;;;5005641;28;20447;-66
2023/01/22 08:28:58;;;;;;;10.23;6.63;;;;;;;;;;5007051;28;20624;-64
2023/01/22 08:31:24;;;;;;;11.20;7.03;;;;;;;;;;5017756;28;20756;-61
2023/01/22 08:33:54;;;;;;;15.97;8.00;;;;;;;;;;5016987;28;20505;-62
2023/01/22 08:36:38;;;;;;;15.97;8.43;;;;;;;;;;5027209;28;20449;-63
2023/01/22 08:39:04;;;;;;;18.60;8.57;;;;;;;;;;5027551;28;20450;-65
2023/01/22 08:41:31;;;;;;;30.30;11.87;;;;;;;;;;5000138;28;20465;-62
2023/01/22 08:43:58;;;;;;;16.43;8.77;;;;;;;;;;5019891;28;20457;-63
2023/01/22 08:46:24;;;;;;;11.50;6.77;;;;;;;;;;5023752;28;20478;-63
2023/01/22 08:48:51;;;;;;;21.97;10.80;;;;;;;;;;5024861;28;20454;-64
2023/01/22 08:51:18;;;;;;;25.97;10.80;;;;;;;;;;5026735;28;20441;-63
2023/01/22 08:53:45;;;;;;;24.03;10.57;;;;;;;;;;5023380;28;20443;-63
2023/01/22 08:56:12;;;;;;;14.17;7.40;;;;;;;;;;5026651;28;20450;-67
2023/01/22 08:58:38;;;;;;;22.20;9.70;;;;;;;;;;5027664;28;20470;-64
2023/01/22 09:01:05;;;;;;;15.97;7.77;;;;;;;;;;5024825;28;20553;-64
2023/01/22 09:03:50;;;;;;;15.80;7.33;;;;;;;;;;5037845;28;21036;-63
2023/01/22 09:06:17;;;;;;;19.87;9.57;;;;;;;;;;5027032;28;20470;-65
2023/01/22 09:08:44;;;;;;;10.07;6.13;;;;;;;;;;5027792;28;20549;-65
2023/01/22 09:11:11;;;;;;;19.40;8.67;;;;;;;;;;5031038;28;21173;-64
2023/01/22 09:13:37;;;;;;;17.40;8.30;;;;;;;;;;5028360;28;20810;-64
2023/01/22 09:16:09;;;;;;;14.37;8.10;;;;;;;;;;4995516;28;20433;-64
2023/01/22 09:18:37;;;;;;;18.07;9.40;;;;;;;;;;5028275;28;20942;-64
2023/01/22 09:21:05;;;;;;;17.80;8.33;;;;;;;;;;5028904;28;20442;-64
2023/01/22 09:23:32;;;;;;;15.93;8.37;;;;;;;;;;5025531;28;20497;-64
2023/01/22 09:25:59;;;;;;;23.17;10.87;;;;;;;;;;5029214;28;21213;-65
2023/01/22 09:28:26;;;;;;;18.13;10.03;;;;;;;;;;5027099;28;20480;-64
2023/01/22 09:30:53;;;;;;;12.10;7.20;;;;;;;;;;5027503;28;20468;-64
2023/01/22 09:33:19;;;;;;;25.33;12.77;;;;;;;;;;5219822;23;20492;-62
2023/01/22 09:35:46;;;;;;;18.93;10.20;;;;;;;;;;4952412;28;20461;-63
2023/01/22 09:38:13;;;;;;;13.63;8.03;;;;;;;;;;4964691;28;20461;-62
2023/01/22 09:40:49;;;;;;;12.03;7.37;;;;;;;;;;4962838;28;20858;-62
2023/01/22 09:43:34;;;;;;;10.50;5.63;;;;;;;;;;4975198;28;20516;-62
2023/01/22 09:46:01;;;;;;;18.87;9.33;;;;;;;;;;4963247;28;20875;-63
2023/01/22 09:48:46;;;;;;;13.43;7.63;;;;;;;;;;4967582;28;20864;-62
2023/01/22 09:51:13;;;;;;;11.47;7.47;;;;;;;;;;4981677;28;20573;-63
2023/01/22 09:53:40;;;;;;;9.13;5.47;;;;;;;;;;4983410;28;20500;-62
2023/01/22 09:56:10;;;;;;;13.30;7.50;;;;;;;;;;4981664;28;20490;-65
2023/01/22 09:58:37;;;;;;;10.87;6.57;;;;;;;;;;4983721;28;20536;-63
2023/01/22 10:01:22;;;;;;;8.07;5.37;;;;;;;;;;4981075;28;20982;-63
2023/01/22 10:03:49;;;;;;;10.73;5.70;;;;;;;;;;4963583;28;20494;-64
2023/01/22 10:06:19;;;;;;;9.07;6.10;;;;;;;;;;4983973;28;20473;-62
2023/01/22 10:08:49;;;;;;;10.97;7.17;;;;;;;;;;4981220;28;20480;-62
2023/01/22 10:11:16;;;;;;;8.90;5.50;;;;;;;;;;4981039;28;20968;-63
2023/01/22 10:13:43;;;;;;;12.00;7.40;;;;;;;;;;4957838;28;20783;-65
2023/01/22 10:16:10;;;;;;;7.40;5.67;;;;;;;;;;4970538;28;20460;-64
2023/01/22 10:18:37;;;;;;;9.47;6.13;;;;;;;;;;4971501;28;20529;-63
2023/01/22 10:21:26;;;;;;;10.33;6.07;;;;;;;;;;4968947;28;20527;-64
2023/01/22 10:23:55;;;;;;;7.10;5.37;;;;;;;;;;4966691;28;20985;-62
2023/01/22 10:26:27;;;;;;;12.70;7.63;;;;;;;;;;4975937;28;20475;-64
2023/01/22 10:28:55;;;;;;;8.53;5.80;;;;;;;;;;4977146;28;20795;-63
2023/01/22 10:31:23;;;;;;;10.80;6.53;;;;;;;;;;4970302;28;20534;-63
2023/01/22 10:34:00;;;;;;;9.87;6.03;;;;;;;;;;4968502;28;21316;-64
2023/01/22 10:36:27;;;;;;;13.60;7.10;;;;;;;;;;4961288;28;20537;-63
2023/01/22 10:39:09;;;;;;;9.23;5.90;;;;;;;;;;4978878;28;20461;-63
2023/01/22 10:41:36;;;;;;;7.57;5.53;;;;;;;;;;4961525;28;20466;-64
2023/01/22 10:44:12;;;;;;;9.73;6.00;;;;;;;;;;4969881;28;20479;-64
2023/01/22 10:46:39;;;;;;;10.70;6.53;;;;;;;;;;4965738;28;20489;-63
2023/01/22 10:49:07;;;;;;;11.07;6.97;;;;;;;;;;4976153;28;20814;-63
2023/01/22 10:51:35;;;;;;;12.50;6.80;;;;;;;;;;4969287;28;20451;-63
2023/01/22 10:54:03;;;;;;;10.77;6.77;;;;;;;;;;4980289;28;20471;-63
2023/01/22 10:56:30;;;;;;;9.70;5.83;;;;;;;;;;4987631;28;20461;-63
2023/01/22 10:58:57;;;;;;;10.57;6.70;;;;;;;;;;4983206;28;20847;-62
2023/01/22 11:01:29;;;;;;;11.60;7.10;;;;;;;;;;4981504;28;20466;-63
2023/01/22 11:03:55;;;;;;;13.67;8.03;;;;;;;;;;4975269;28;20463;-63
2023/01/22 11:06:37;;;;;;;10.13;6.87;;;;;;;;;;4981526;28;20830;-63
2023/01/22 11:09:11;;;;;;;13.43;7.53;;;;;;;;;;4979017;28;20455;-63
2023/01/22 11:11:39;;;;;;;20.57;10.80;;;;;;;;;;4976913;28;20600;-63
2023/01/22 11:14:10;;;;;;;14.00;8.53;;;;;;;;;;4978205;28;20479;-63
2023/01/22 11:16:37;;;;;;;12.93;7.13;;;;;;;;;;4971964;28;20562;-63
2023/01/22 11:19:14;;;;;;;11.17;6.73;;;;;;;;;;4977255;28;20505;-62
2023/01/22 11:21:50;;;;;;;11.13;7.60;;;;;;;;;;4980154;28;20498;-64
2023/01/22 11:24:45;;;;;;;11.50;6.40;;;;;;;;;;4964862;28;20441;-64
2023/01/22 11:27:13;;;;;;;7.93;5.80;;;;;;;;;;4981217;28;20533;-64
2023/01/22 11:30:16;;;;;;;13.93;9.03;;;;;;;;;;4983675;28;20473;-64
2023/01/22 11:33:11;;;;;;;8.57;5.87;;;;;;;;;;4918676;28;20483;-64
2023/01/22 11:35:53;;;;;;;9.00;6.67;;;;;;;;;;4923043;28;20462;-64
2023/01/22 11:38:37;;;;;;;9.93;6.60;;;;;;;;;;4914744;28;20779;-64
2023/01/22 11:41:07;;;;;;;10.40;6.93;;;;;;;;;;4904078;28;20468;-63
2023/01/22 11:43:54;;;;;;;10.20;6.00;;;;;;;;;;4912519;28;20457;-64
2023/01/22 11:46:21;;;;;;;9.07;6.00;;;;;;;;;;4922840;28;20494;-63
2023/01/22 11:48:51;;;;;;;12.00;7.20;;;;;;;;;;4902151;28;20537;-64
2023/01/22 11:51:33;;;;;;;9.60;6.47;;;;;;;;;;4920885;28;20457;-63
2023/01/22 11:54:39;;;;;;;9.73;7.00;;;;;;;;;;4915215;28;21202;-63
2023/01/22 11:57:09;;;;;;;10.47;6.63;;;;;;;;;;4881012;29;20533;-62
2023/01/22 11:59:35;;;;;;;12.37;7.73;;;;;;;;;;4881684;29;20494;-63
2023/01/22 12:02:21;;;;;;;19.77;9.50;;;;;;;;;;4901321;28;20466;-64
2023/01/22 12:04:54;;;;;;;10.87;6.53;;;;;;;;;;4916658;28;20456;-64
2023/01/22 12:07:20;;;;;;;9.40;6.03;;;;;;;;;;4916021;28;21002;-64
2023/01/22 12:09:53;;;;;;;7.67;5.60;;;;;;;;;;4935240;28;20875;-65
2023/01/22 12:12:26;;;;;;;10.07;5.70;;;;;;;;;;4965261;28;20462;-66
2023/01/22 12:14:56;;;;;;;11.63;6.70;;;;;;;;;;4954023;28;20524;-65
2023/01/22 12:17:29;;;;;;;11.30;6.57;;;;;;;;;;4971708;28;21188;-64
2023/01/22 12:20:22;;;;;;;29.80;12.00;;;;;;;;;;4966794;28;20642;-64
2023/01/22 12:23:08;;;;;;;16.20;7.93;;;;;;;;;;4978712;28;20455;-63
2023/01/22 12:25:58;;;;;;;30.20;12.77;;;;;;;;;;4978245;28;20556;-62
2023/01/22 12:28:24;;;;;;;26.30;12.93;;;;;;;;;;4979327;28;20467;-62
2023/01/22 12:30:51;;;;;;;29.40;12.40;;;;;;;;;;4981384;28;20533;-63
2023/01/22 12:33:20;;;;;;;37.13;15.27;;;;;;;;;;4983509;28;20467;-63
2023/01/22 12:35:50;;;;;;;22.17;11.77;;;;;;;;;;4981710;28;21356;-63
2023/01/22 12:38:17;;;;;;;13.70;8.67;;;;;;;;;;4991663;28;20548;-63
2023/01/22 12:40:46;;;;;;;11.87;6.40;;;;;;;;;;4980165;28;20529;-63
2023/01/22 12:43:36;;;;;;;11.20;6.40;;;;;;;;;;4983845;28;20462;-63
2023/01/22 12:46:14;;;;;;;11.07;6.27;;;;;;;;;;4980885;28;20234;-62
2023/01/22 12:49:07;;;;;;;11.37;6.50;;;;;;;;;;4962687;28;20464;-62
2023/01/22 12:51:38;;;;;;;11.57;6.80;;;;;;;;;;4973874;28;20946;-62
2023/01/22 12:54:31;;;;;;;10.70;6.73;;;;;;;;;;4975713;28;20448;-62
2023/01/22 12:57:12;;;;;;;10.37;6.23;;;;;;;;;;4977191;28;20250;-62
2023/01/22 12:59:41;;;;;;;12.43;7.20;;;;;;;;;;4975115;28;21041;-61
2023/01/22 13:02:20;;;;;;;12.93;7.23;;;;;;;;;;4979788;28;20254;-62
2023/01/22 13:04:47;;;;;;;10.20;6.50;;;;;;;;;;4967993;28;20471;-62
2023/01/22 13:07:23;;;;;;;10.20;6.03;;;;;;;;;;4986878;28;20995;-64
2023/01/22 13:10:22;;;;;;;11.63;6.57;;;;;;;;;;4977477;28;20456;-63
2023/01/22 13:12:49;;;;;;;18.23;10.10;;;;;;;;;;4931993;28;20531;-64
2023/01/22 13:15:18;;;;;;;13.53;8.63;;;;;;;;;;4979462;28;21619;-64
2023/01/22 13:17:48;;;;;;;11.97;7.90;;;;;;;;;;4976881;28;20472;-64
2023/01/22 13:20:35;;;;;;;13.20;7.37;;;;;;;;;;4980222;28;20458;-62
2023/01/22 13:23:03;;;;;;;10.80;6.17;;;;;;;;;;4955166;28;20459;-62
2023/01/22 13:25:31;;;;;;;9.83;6.50;;;;;;;;;;4956718;28;20538;-63
2023/01/22 13:27:58;;;;;;;9.93;6.53;;;;;;;;;;4978576;28;20470;-63
2023/01/22 13:30:26;;;;;;;9.07;6.00;;;;;;;;;;4979701;28;20477;-63
2023/01/22 13:33:03;;;;;;;11.33;7.17;;;;;;;;;;4979896;28;20454;-66
2023/01/22 13:35:47;;;;;;;11.93;6.73;;;;;;;;;;4974328;28;20508;-63
2023/01/22 13:38:21;;;;;;;14.63;8.63;;;;;;;;;;4977175;28;20455;-63
2023/01/22 13:40:49;;;;;;;11.50;6.20;;;;;;;;;;4978946;28;20443;-63
2023/01/22 13:43:18;;;;;;;11.67;6.53;;;;;;;;;;4976869;28;21222;-62
2023/01/22 13:45:44;;;;;;;10.73;6.30;;;;;;;;;;4972831;28;20490;-63
2023/01/22 13:48:13;;;;;;;8.70;5.80;;;;;;;;;;4976698;28;20481;-62
2023/01/22 13:50:40;;;;;;;9.53;6.10;;;;;;;;;;4966663;28;20454;-63
2023/01/22 13:53:08;;;;;;;8.63;5.57;;;;;;;;;;4976901;28;20470;-63
2023/01/22 13:55:34;;;;;;;7.90;5.77;;;;;;;;;;4966833;28;20454;-63
2023/01/22 13:58:04;;;;;;;10.30;6.50;;;;;;;;;;4977431;28;20470;-62
2023/01/22 14:00:34;;;;;;;9.93;6.77;;;;;;;;;;4977763;28;20469;-63
2023/01/22 14:03:01;;;;;;;8.40;6.10;;;;;;;;;;4977184;28;20451;-63
2023/01/22 14:05:29;;;;;;;8.80;5.70;;;;;;;;;;4979626;28;20447;-63
2023/01/22 14:08:02;;;;;;;7.40;5.17;;;;;;;;;;4977268;28;20493;-62
2023/01/22 14:10:30;;;;;;;8.33;5.47;;;;;;;;;;4979003;28;20545;-62
2023/01/22 14:12:59;;;;;;;8.97;5.73;;;;;;;;;;4981138;28;21232;-61
2023/01/22 14:15:26;;;;;;;9.23;5.93;;;;;;;;;;4981947;28;20861;-63
2023/01/22 14:17:53;;;;;;;10.07;6.47;;;;;;;;;;4983209;28;20473;-62
2023/01/22 14:20:20;;;;;;;8.87;5.60;;;;;;;;;;4979418;28;20642;-64
2023/01/22 14:22:47;;;;;;;8.80;5.60;;;;;;;;;;4982715;28;20459;-65
2023/01/22 14:25:31;;;;;;;8.37;5.37;;;;;;;;;;4982441;28;20576;-63
2023/01/22 14:27:59;;;;;;;7.43;5.33;;;;;;;;;;4983115;28;20451;-62
2023/01/22 14:30:43;;;;;;;9.80;6.17;;;;;;;;;;4981182;28;20880;-63
2023/01/22 14:33:20;;;;;;;8.37;5.67;;;;;;;;;;4982682;28;20825;-63
2023/01/22 14:35:50;;;;;;;8.80;5.90;;;;;;;;;;4981802;28;20465;-63
2023/01/22 14:38:17;;;;;;;12.63;6.60;;;;;;;;;;4982727;28;20538;-63
2023/01/22 14:40:44;;;;;;;9.43;6.00;;;;;;;;;;4982143;28;20544;-66
2023/01/22 14:43:11;;;;;;;9.90;5.90;;;;;;;;;;4984108;28;20533;-63
2023/01/22 14:45:41;;;;;;;8.53;5.60;;;;;;;;;;4982039;28;20466;-63
2023/01/22 14:48:10;;;;;;;8.93;5.90;;;;;;;;;;4982813;28;20451;-67
2023/01/22 14:50:37;;;;;;;9.20;5.37;;;;;;;;;;4982953;28;20482;-63
2023/01/22 14:53:04;;;;;;;9.00;5.17;;;;;;;;;;4982828;28;20462;-63
2023/01/22 14:55:31;;;;;;;14.80;8.50;;;;;;;;;;4982478;28;20947;-66
2023/01/22 14:57:58;;;;;;;18.23;9.47;;;;;;;;;;4988028;28;20466;-63
2023/01/22 15:00:26;;;;;;;9.97;6.40;;;;;;;;;;4985753;28;20463;-63
2023/01/22 15:02:53;;;;;;;10.37;5.83;;;;;;;;;;4986374;28;20516;-63
2023/01/22 15:05:20;;;;;;;11.03;7.07;;;;;;;;;;4984956;28;20541;-62
2023/01/22 15:07:47;;;;;;;8.77;5.47;;;;;;;;;;4987268;28;23153;-62
2023/01/22 15:10:14;;;;;;;9.57;5.27;;;;;;;;;;4986403;28;20534;-62
2023/01/22 15:12:44;;;;;;;8.13;5.70;;;;;;;;;;4986695;28;23775;-62
2023/01/22 15:15:10;;;;;;;8.07;5.20;;;;;;;;;;4984737;28;20446;-63
2023/01/22 15:17:37;;;;;;;8.03;5.60;;;;;;;;;;4986815;28;23866;-63
2023/01/22 15:20:04;;;;;;;9.20;5.70;;;;;;;;;;4968476;28;20459;-63
2023/01/22 15:22:31;;;;;;;8.93;5.83;;;;;;;;;;4986714;28;23618;-62
2023/01/22 15:24:57;;;;;;;8.10;5.67;;;;;;;;;;4985337;28;20470;-62
2023/01/22 15:27:43;;;;;;;10.23;6.07;;;;;;;;;;4986398;28;21001;-63
2023/01/22 15:30:10;;;;;;;8.00;5.77;;;;;;;;;;4984980;28;20459;-62
2023/01/22 15:32:54;;;;;;;8.63;5.80;;;;;;;;;;4971360;28;20825;-63
2023/01/22 15:35:21;;;;;;;8.20;5.50;;;;;;;;;;4984121;28;20456;-62
2023/01/22 15:37:48;;;;;;;10.10;6.10;;;;;;;;;;4986943;28;20469;-62
2023/01/22 15:40:15;;;;;;;9.20;5.90;;;;;;;;;;4985034;28;20486;-64
2023/01/22 15:42:42;;;;;;;10.97;6.40;;;;;;;;;;4986625;28;20444;-62